Time;durP1;ratioP1;P1;durP2;ratioP2;P2;SDS_P1;SDS_P2;PMS_P1;PMS_P2;Temp;Humidity;BMP_temperature;BMP_pressure;BME280_temperature;BME280_humidity;BME280_pressure;Samples;Min_cycle;Max_cycle;Signal;HPM_P1;HPM_P2
2024/01/08 00:00:27;;;;;;;9.43;3.22;;;-2.40;99.90;;;;;;5028925;28;20021;-66
2024/01/08 00:02:53;;;;;;;8.40;3.38;;;-2.60;99.90;;;;;;5036447;28;20021;-69
2024/01/08 00:05:19;;;;;;;8.85;3.38;;;-2.60;99.90;;;;;;5052625;28;20044;-68
2024/01/08 00:07:44;;;;;;;9.20;3.25;;;-2.60;99.90;;;;;;5037583;28;20083;-68
2024/01/08 00:10:10;;;;;;;10.23;3.88;;;-2.50;99.90;;;;;;5044210;28;20394;-68
2024/01/08 00:12:36;;;;;;;8.40;3.40;;;-2.50;99.90;;;;;;5042901;28;20466;-69
2024/01/08 00:15:01;;;;;;;9.48;3.80;;;-2.50;99.90;;;;;;5049092;28;20455;-68
2024/01/08 00:17:27;;;;;;;10.68;4.18;;;-2.50;99.90;;;;;;5030945;28;20038;-66
2024/01/08 00:19:52;;;;;;;14.43;4.30;;;-2.40;99.90;;;;;;5038339;28;20099;-66
2024/01/08 00:22:18;;;;;;;10.65;4.05;;;-2.50;99.90;;;;;;5037761;28;20029;-69
2024/01/08 00:24:44;;;;;;;9.52;4.15;;;-2.50;99.90;;;;;;5043658;28;20355;-67
2024/01/08 00:27:09;;;;;;;9.32;3.80;;;-2.40;99.90;;;;;;5036766;28;20048;-66
2024/01/08 00:29:35;;;;;;;8.02;3.15;;;-2.40;99.90;;;;;;5044724;28;20029;-74
2024/01/08 00:32:01;;;;;;;10.05;3.30;;;-2.50;99.90;;;;;;5032006;28;20025;-67
2024/01/08 00:34:27;;;;;;;6.65;2.90;;;-2.40;99.90;;;;;;5031767;28;20029;-69
2024/01/08 00:36:53;;;;;;;8.05;3.63;;;-2.40;99.90;;;;;;5031041;28;20032;-66
2024/01/08 00:39:18;;;;;;;8.38;3.33;;;-2.40;99.90;;;;;;5044186;28;20033;-68
2024/01/08 00:41:44;;;;;;;7.82;3.50;;;-2.40;99.90;;;;;;5037387;28;20452;-66
2024/01/08 00:44:10;;;;;;;10.68;4.38;;;-2.50;99.90;;;;;;5040252;28;20029;-69
2024/01/08 00:46:35;;;;;;;9.48;3.65;;;-2.50;99.90;;;;;;5031099;28;20748;-74
2024/01/08 00:49:01;;;;;;;8.88;3.80;;;-2.50;99.90;;;;;;5043466;28;20045;-67
2024/01/08 00:51:26;;;;;;;9.40;3.40;;;-2.60;99.90;;;;;;5043367;28;20065;-67
2024/01/08 00:53:52;;;;;;;9.57;3.53;;;-2.60;99.90;;;;;;5035033;28;20363;-66
2024/01/08 00:56:18;;;;;;;7.47;3.28;;;-2.60;99.90;;;;;;5040332;28;20460;-67
2024/01/08 00:58:44;;;;;;;8.07;3.38;;;-2.60;99.90;;;;;;5029497;28;20033;-67
2024/01/08 01:01:14;;;;;;;7.57;3.22;;;-2.60;99.90;;;;;;5031367;28;20069;-67
2024/01/08 01:03:39;;;;;;;8.73;3.50;;;-2.60;99.90;;;;;;5030647;28;20017;-67
2024/01/08 01:06:05;;;;;;;8.02;3.42;;;-2.50;99.90;;;;;;5032047;28;20021;-66
2024/01/08 01:08:31;;;;;;;7.60;3.53;;;-2.50;99.90;;;;;;5037936;28;20341;-66
2024/01/08 01:10:56;;;;;;;7.07;3.40;;;-2.50;99.90;;;;;;5037164;28;20032;-71
2024/01/08 01:13:22;;;;;;;9.38;3.92;;;-2.60;99.90;;;;;;5040064;28;20021;-67
2024/01/08 01:15:47;;;;;;;8.10;3.75;;;-2.50;99.90;;;;;;5036315;28;20033;-65
2024/01/08 01:18:13;;;;;;;8.52;3.78;;;-2.50;99.90;;;;;;5029605;28;20116;-68
2024/01/08 01:20:39;;;;;;;10.00;3.65;;;-2.50;99.90;;;;;;5030260;28;20061;-74
2024/01/08 01:23:04;;;;;;;10.35;4.30;;;-2.50;99.90;;;;;;5030217;28;20080;-67
2024/01/08 01:25:30;;;;;;;8.75;3.90;;;-2.40;99.90;;;;;;5031006;28;20104;-68
2024/01/08 01:27:55;;;;;;;10.82;3.97;;;-2.50;99.90;;;;;;5031513;28;20038;-67
2024/01/08 01:30:21;;;;;;;10.80;3.80;;;-2.50;99.90;;;;;;5051359;28;20087;-69
2024/01/08 01:32:47;;;;;;;11.48;4.40;;;-2.50;99.90;;;;;;5050010;28;20112;-67
2024/01/08 01:35:12;;;;;;;10.13;3.90;;;-2.50;99.90;;;;;;5036223;28;20429;-66
2024/01/08 01:37:41;;;;;;;11.85;5.18;;;-2.50;99.90;;;;;;5030391;28;20040;-74
2024/01/08 01:40:08;;;;;;;10.45;4.40;;;-2.50;99.90;;;;;;5030865;28;20458;-67
2024/01/08 01:42:34;;;;;;;10.57;4.18;;;-2.40;99.90;;;;;;5034109;28;20389;-70
2024/01/08 01:44:59;;;;;;;10.05;4.72;;;-2.40;99.90;;;;;;5030066;28;20021;-68
2024/01/08 01:47:25;;;;;;;9.85;4.40;;;-2.30;99.90;;;;;;5030237;28;20077;-65
2024/01/08 01:49:53;;;;;;;12.95;4.78;;;-2.30;99.90;;;;;;5029896;28;20033;-67
2024/01/08 01:52:20;;;;;;;10.85;4.88;;;-2.20;99.90;;;;;;5036835;28;20032;-68
2024/01/08 01:54:48;;;;;;;10.00;4.50;;;-2.30;99.90;;;;;;5037855;28;20022;-67
2024/01/08 01:57:14;;;;;;;9.02;4.22;;;-2.30;99.90;;;;;;5030183;28;20103;-67
2024/01/08 01:59:40;;;;;;;8.77;3.97;;;-2.40;99.90;;;;;;5040746;28;20509;-74
2024/01/08 02:02:07;;;;;;;10.32;4.35;;;-2.40;99.90;;;;;;5032675;28;20029;-66
2024/01/08 02:04:32;;;;;;;8.50;4.40;;;-2.40;99.90;;;;;;5035145;28;20035;-66
2024/01/08 02:07:00;;;;;;;10.05;4.40;;;-2.40;99.90;;;;;;5046709;28;20647;-69
2024/01/08 02:09:27;;;;;;;11.35;4.15;;;-2.30;99.90;;;;;;5037143;28;20034;-67
2024/01/08 02:11:52;;;;;;;12.13;4.53;;;-2.40;99.90;;;;;;5045386;28;20462;-65
2024/01/08 02:14:18;;;;;;;10.90;4.45;;;-2.40;99.90;;;;;;5042610;28;20036;-68
2024/01/08 02:16:44;;;;;;;9.75;4.07;;;-2.30;99.90;;;;;;5032369;28;20034;-66
2024/01/08 02:19:11;;;;;;;9.20;3.63;;;-2.40;99.90;;;;;;5040324;28;20033;-67
2024/01/08 02:21:36;;;;;;;9.45;4.13;;;-2.40;99.90;;;;;;5036928;28;20470;-69
2024/01/08 02:24:04;;;;;;;13.27;4.40;;;-2.30;99.90;;;;;;5040419;28;20031;-66
2024/01/08 02:26:29;;;;;;;7.72;3.38;;;-2.30;99.90;;;;;;5036790;28;20055;-66
2024/01/08 02:28:55;;;;;;;10.98;3.83;;;-2.40;99.90;;;;;;5028382;28;20478;-67
2024/01/08 02:31:22;;;;;;;10.02;4.13;;;-2.30;99.90;;;;;;5029753;28;20045;-67
2024/01/08 02:33:47;;;;;;;7.43;3.50;;;-2.30;99.90;;;;;;5028576;28;20029;-65
2024/01/08 02:36:13;;;;;;;8.63;3.67;;;-2.30;99.90;;;;;;5042397;28;20029;-67
2024/01/08 02:38:39;;;;;;;8.38;3.65;;;-2.40;99.90;;;;;;5043801;28;20463;-68
2024/01/08 02:41:04;;;;;;;11.20;4.20;;;-2.30;99.90;;;;;;5029112;28;20058;-67
2024/01/08 02:43:31;;;;;;;9.30;4.00;;;-2.40;99.90;;;;;;5031796;28;20040;-71
2024/01/08 02:45:56;;;;;;;8.82;3.63;;;-2.30;99.90;;;;;;5030376;28;20112;-69
2024/01/08 02:48:22;;;;;;;11.30;3.78;;;-2.40;99.90;;;;;;5032026;28;20120;-66
2024/01/08 02:50:48;;;;;;;8.95;3.28;;;-2.40;99.90;;;;;;5034398;28;20722;-68
2024/01/08 02:53:13;;;;;;;5.82;3.05;;;-2.40;99.90;;;;;;5048928;28;20040;-68
2024/01/08 02:55:39;;;;;;;8.35;3.50;;;-2.40;99.90;;;;;;5034188;28;20374;-71
2024/01/08 02:58:05;;;;;;;9.07;3.15;;;-2.30;99.90;;;;;;5047352;28;20466;-68
2024/01/08 03:00:31;;;;;;;8.38;3.55;;;-2.30;99.90;;;;;;5029192;28;20072;-67
2024/01/08 03:02:56;;;;;;;9.68;3.53;;;-2.30;99.90;;;;;;5045151;28;20386;-70
2024/01/08 03:05:22;;;;;;;5.95;3.28;;;-2.40;99.90;;;;;;5040159;28;20037;-66
2024/01/08 03:07:47;;;;;;;9.35;3.65;;;-2.40;99.90;;;;;;5031199;28;20747;-66
2024/01/08 03:10:13;;;;;;;8.25;3.28;;;-2.40;99.90;;;;;;5034267;28;20052;-66
2024/01/08 03:12:39;;;;;;;11.05;3.83;;;-2.40;99.90;;;;;;5029333;28;20033;-68
2024/01/08 03:15:05;;;;;;;9.05;3.25;;;-2.40;99.90;;;;;;5028899;28;20021;-67
2024/01/08 03:17:30;;;;;;;10.88;3.60;;;-2.30;99.90;;;;;;5040327;28;20044;-68
2024/01/08 03:19:56;;;;;;;9.48;3.63;;;-2.30;99.90;;;;;;5036176;28;20567;-70
2024/01/08 03:22:22;;;;;;;6.63;3.17;;;-2.40;99.90;;;;;;5028533;28;20026;-68
2024/01/08 03:24:47;;;;;;;7.72;3.20;;;-2.40;99.90;;;;;;5035861;28;20075;-66
2024/01/08 03:27:13;;;;;;;9.80;3.78;;;-2.40;99.90;;;;;;5029171;28;20386;-68
2024/01/08 03:29:40;;;;;;;8.60;3.35;;;-2.40;99.90;;;;;;5038572;28;20398;-68
2024/01/08 03:32:06;;;;;;;8.60;3.65;;;-2.40;99.90;;;;;;5031964;28;20049;-67
2024/01/08 03:34:32;;;;;;;8.73;3.90;;;-2.40;99.90;;;;;;5043679;28;20034;-68
2024/01/08 03:36:58;;;;;;;8.57;3.95;;;-2.40;99.90;;;;;;5027357;28;20036;-66
2024/01/08 03:39:25;;;;;;;10.77;3.78;;;-2.40;99.90;;;;;;5028753;28;20033;-68
2024/01/08 03:41:50;;;;;;;7.82;3.80;;;-2.50;99.90;;;;;;5027846;28;20033;-68
2024/01/08 03:44:16;;;;;;;12.07;4.03;;;-2.50;99.90;;;;;;5028532;28;20458;-68
2024/01/08 03:46:42;;;;;;;14.13;4.97;;;-2.50;99.90;;;;;;5029480;28;20112;-67
2024/01/08 03:49:09;;;;;;;14.38;4.32;;;-2.50;99.90;;;;;;5047458;28;20520;-68
2024/01/08 03:51:35;;;;;;;10.88;4.65;;;-2.50;99.90;;;;;;5048599;28;20037;-67
2024/01/08 03:54:01;;;;;;;11.25;4.78;;;-2.50;99.90;;;;;;5035147;28;20766;-66
2024/01/08 03:56:26;;;;;;;10.52;4.40;;;-2.50;99.90;;;;;;5027949;28;20029;-69
2024/01/08 03:58:52;;;;;;;9.55;4.07;;;-2.40;99.90;;;;;;5027796;28;20485;-67
2024/01/08 04:01:18;;;;;;;9.07;4.22;;;-2.50;99.90;;;;;;5028240;28;20113;-68
2024/01/08 04:03:43;;;;;;;9.50;4.35;;;-2.50;99.90;;;;;;5042853;28;20497;-68
2024/01/08 04:06:09;;;;;;;11.70;4.75;;;-2.40;99.90;;;;;;5024456;28;20033;-67
2024/01/08 04:08:35;;;;;;;10.88;4.55;;;-2.50;99.90;;;;;;5029992;28;20477;-67
2024/01/08 04:11:00;;;;;;;9.68;4.18;;;-2.50;99.90;;;;;;5027560;28;20410;-68
2024/01/08 04:13:26;;;;;;;9.25;4.15;;;-2.50;99.90;;;;;;5028183;28;20463;-68
2024/01/08 04:15:52;;;;;;;10.35;4.43;;;-2.50;99.90;;;;;;5028217;28;20021;-66
2024/01/08 04:18:17;;;;;;;11.07;4.13;;;-2.50;99.90;;;;;;5033639;28;20037;-67
2024/01/08 04:20:43;;;;;;;10.15;4.07;;;-2.60;99.90;;;;;;5034170;28;20033;-67
2024/01/08 04:23:09;;;;;;;8.15;4.00;;;-2.60;99.90;;;;;;5029441;28;20936;-67
2024/01/08 04:25:35;;;;;;;11.25;4.53;;;-2.50;99.90;;;;;;5040363;28;20087;-66
2024/01/08 04:28:00;;;;;;;9.15;4.07;;;-2.50;99.90;;;;;;5039892;28;20525;-67
2024/01/08 04:30:26;;;;;;;12.77;4.00;;;-2.60;99.90;;;;;;5041506;28;20037;-67
2024/01/08 04:32:52;;;;;;;10.38;4.35;;;-2.60;99.90;;;;;;5026938;28;20021;-67
2024/01/08 04:35:18;;;;;;;12.63;4.60;;;-2.60;99.90;;;;;;5032674;28;20080;-67
2024/01/08 04:37:44;;;;;;;10.57;4.88;;;-2.60;99.90;;;;;;5029928;28;20481;-67
2024/01/08 04:40:10;;;;;;;9.98;4.63;;;-2.60;99.90;;;;;;5028534;28;20462;-66
2024/01/08 04:42:36;;;;;;;10.30;4.80;;;-2.60;99.90;;;;;;5029538;28;20026;-66
2024/01/08 04:45:01;;;;;;;13.38;4.88;;;-2.70;99.90;;;;;;5034718;28;20535;-67
2024/01/08 04:47:27;;;;;;;12.05;4.57;;;-2.70;99.90;;;;;;5045187;28;20491;-66
2024/01/08 04:49:53;;;;;;;10.88;5.22;;;-2.70;99.90;;;;;;5047138;28;20029;-66
2024/01/08 04:52:18;;;;;;;12.70;5.05;;;-2.70;99.90;;;;;;5039144;28;20071;-68
2024/01/08 04:54:44;;;;;;;12.55;5.50;;;-2.70;99.90;;;;;;5045389;28;20090;-66
2024/01/08 04:57:10;;;;;;;15.68;5.93;;;-2.70;99.90;;;;;;5050786;28;20029;-65
2024/01/08 04:59:40;;;;;;;23.02;8.10;;;-2.70;99.90;;;;;;5028484;28;20080;-66
2024/01/08 05:02:05;;;;;;;24.38;8.25;;;-2.70;99.90;;;;;;5036084;28;20029;-64
2024/01/08 05:04:31;;;;;;;21.65;8.00;;;-2.70;99.90;;;;;;5053075;28;20086;-66
2024/01/08 05:06:57;;;;;;;19.80;7.88;;;-2.70;99.90;;;;;;5050240;28;20029;-65
2024/01/08 05:09:22;;;;;;;12.98;5.63;;;-2.70;99.90;;;;;;5036213;28;20073;-64
2024/01/08 05:11:48;;;;;;;23.67;8.60;;;-2.70;99.90;;;;;;5033157;28;20040;-65
2024/01/08 05:14:13;;;;;;;11.38;5.00;;;-2.70;99.90;;;;;;5031714;28;20442;-71
2024/01/08 05:16:39;;;;;;;13.18;5.55;;;-2.70;99.90;;;;;;5034423;28;20612;-67
2024/01/08 05:19:05;;;;;;;20.98;7.53;;;-2.80;99.90;;;;;;5043028;28;20073;-68
2024/01/08 05:21:31;;;;;;;29.75;9.82;;;-2.80;99.90;;;;;;5030775;28;20049;-66
2024/01/08 05:23:56;;;;;;;23.10;7.45;;;-2.70;99.90;;;;;;5038072;28;20104;-71
2024/01/08 05:26:22;;;;;;;20.60;7.68;;;-2.60;99.90;;;;;;5040458;28;20139;-65
2024/01/08 05:28:48;;;;;;;13.48;5.97;;;-2.60;99.90;;;;;;5034604;28;20079;-65
2024/01/08 05:31:13;;;;;;;19.13;6.75;;;-2.60;99.90;;;;;;5031083;28;20021;-68
2024/01/08 05:33:39;;;;;;;17.35;7.20;;;-2.70;99.90;;;;;;5039477;28;20063;-65
2024/01/08 05:36:06;;;;;;;11.07;4.97;;;-2.60;99.90;;;;;;5038371;28;20032;-64
2024/01/08 05:38:31;;;;;;;16.58;6.95;;;-2.70;99.90;;;;;;5046863;28;20036;-66
2024/01/08 05:40:57;;;;;;;15.13;5.90;;;-2.70;99.90;;;;;;5032266;28;20026;-69
2024/01/08 05:43:23;;;;;;;19.02;6.60;;;-2.60;99.90;;;;;;5031606;28;20037;-66
2024/01/08 05:45:49;;;;;;;19.10;7.18;;;-2.60;99.90;;;;;;5031655;28;20405;-72
2024/01/08 05:48:15;;;;;;;14.80;6.40;;;-2.60;99.90;;;;;;5042795;28;20223;-67
2024/01/08 05:50:41;;;;;;;13.82;5.95;;;-2.60;99.90;;;;;;5050348;28;20128;-67
2024/01/08 05:53:06;;;;;;;12.60;5.20;;;-2.60;99.90;;;;;;5040311;28;20064;-66
2024/01/08 05:55:32;;;;;;;14.73;5.93;;;-2.70;99.90;;;;;;5030799;28;20497;-65
2024/01/08 05:57:58;;;;;;;15.63;6.43;;;-2.70;99.90;;;;;;5029497;28;20140;-66
2024/01/08 06:00:23;;;;;;;13.27;6.15;;;-2.60;99.90;;;;;;5030288;28;20061;-66
2024/01/08 06:02:49;;;;;;;12.35;5.50;;;-2.70;99.90;;;;;;5030377;28;20104;-68
2024/01/08 06:05:15;;;;;;;16.85;6.53;;;-2.60;99.90;;;;;;5029617;28;20036;-65
2024/01/08 06:07:40;;;;;;;16.20;6.35;;;-2.60;99.90;;;;;;5029252;28;20041;-66
2024/01/08 06:10:06;;;;;;;14.57;5.50;;;-2.60;99.90;;;;;;5029666;28;20025;-66
2024/01/08 06:12:32;;;;;;;13.65;5.50;;;-2.60;99.90;;;;;;5036474;28;20025;-67
2024/01/08 06:14:57;;;;;;;12.57;5.90;;;-2.60;99.90;;;;;;5029171;28;20038;-68
2024/01/08 06:17:23;;;;;;;12.52;5.43;;;-2.60;99.90;;;;;;5029318;28;20093;-68
2024/01/08 06:19:49;;;;;;;10.75;4.95;;;-2.60;99.90;;;;;;5029879;28;20032;-66
2024/01/08 06:22:15;;;;;;;13.48;5.50;;;-2.70;99.90;;;;;;5029326;28;20025;-70
2024/01/08 06:24:41;;;;;;;12.23;4.70;;;-2.70;99.90;;;;;;5029432;28;20043;-70
2024/01/08 06:27:06;;;;;;;15.07;5.07;;;-2.80;99.90;;;;;;5029291;28;20041;-72
2024/01/08 06:29:32;;;;;;;10.00;4.90;;;-2.80;99.90;;;;;;5030807;28;20035;-69
2024/01/08 06:31:59;;;;;;;11.73;4.72;;;-2.80;99.90;;;;;;5025695;28;20103;-73
2024/01/08 06:34:25;;;;;;;12.38;4.80;;;-2.80;99.90;;;;;;5025841;28;20071;-70
2024/01/08 06:36:50;;;;;;;12.40;5.07;;;-2.80;99.90;;;;;;5028013;28;20061;-72
2024/01/08 06:39:16;;;;;;;11.30;4.95;;;-2.80;99.90;;;;;;5033606;28;20116;-77
2024/01/08 06:41:42;;;;;;;11.18;5.00;;;-2.80;99.90;;;;;;5029230;28;20029;-70
2024/01/08 06:44:08;;;;;;;11.27;4.88;;;-2.80;99.90;;;;;;5026141;28;20036;-71
2024/01/08 06:46:33;;;;;;;10.55;4.28;;;-2.80;99.90;;;;;;5028068;28;20057;-73
2024/01/08 06:48:59;;;;;;;9.50;4.47;;;-2.70;99.90;;;;;;5017409;28;20124;-70
2024/01/08 06:51:25;;;;;;;11.88;4.68;;;-2.70;99.90;;;;;;5023482;28;20034;-70
2024/01/08 06:53:50;;;;;;;9.43;4.70;;;-2.70;99.90;;;;;;5028482;28;20778;-66
2024/01/08 06:56:16;;;;;;;14.73;5.15;;;-2.70;99.90;;;;;;5026912;28;20100;-68
2024/01/08 06:58:41;;;;;;;10.73;4.45;;;-2.80;99.90;;;;;;5034586;28;20355;-71
2024/01/08 07:01:07;;;;;;;14.45;4.82;;;-2.80;99.90;;;;;;5026978;28;20032;-70
2024/01/08 07:03:34;;;;;;;11.40;4.63;;;-2.90;99.90;;;;;;5029731;28;20044;-66
2024/01/08 07:06:01;;;;;;;12.60;4.60;;;-3.00;99.90;;;;;;5025736;28;20036;-68
2024/01/08 07:08:27;;;;;;;11.48;4.50;;;-3.00;99.90;;;;;;5063231;28;20040;-70
2024/01/08 07:10:52;;;;;;;8.70;4.22;;;-3.00;99.90;;;;;;5031938;28;20025;-68
2024/01/08 07:13:18;;;;;;;11.15;4.55;;;-2.90;99.90;;;;;;5019484;28;20471;-69
2024/01/08 07:15:48;;;;;;;10.18;4.15;;;-2.90;99.90;;;;;;5023733;28;20378;-64
2024/01/08 07:18:15;;;;;;;11.57;3.95;;;-2.90;99.90;;;;;;5023486;28;20038;-71
2024/01/08 07:20:41;;;;;;;10.82;3.97;;;-2.90;99.90;;;;;;5027147;28;20037;-65
2024/01/08 07:23:12;;;;;;;8.90;3.80;;;-2.90;99.90;;;;;;5025556;28;20033;-70
2024/01/08 07:25:39;;;;;;;11.60;4.57;;;-3.00;99.90;;;;;;5024508;28;20148;-66
2024/01/08 07:28:10;;;;;;;9.80;4.53;;;-2.90;99.90;;;;;;5026124;28;20030;-68
2024/01/08 07:30:36;;;;;;;;;;;-2.90;99.90;;;;;;5028993;28;20029;-64
2024/01/08 07:33:01;;;;;;;10.15;3.55;;;-2.80;99.90;;;;;;5027725;28;19923;-72
2024/01/08 07:35:27;;;;;;;14.13;5.00;;;-2.80;99.90;;;;;;5024964;28;20037;-68
2024/01/08 07:37:56;;;;;;;13.63;4.95;;;-2.90;99.90;;;;;;5026168;28;20080;-69
2024/01/08 07:40:25;;;;;;;11.48;4.32;;;-2.90;99.90;;;;;;5026493;28;20035;-67
2024/01/08 07:42:55;;;;;;;11.97;4.73;;;-2.90;99.90;;;;;;5031181;28;20136;-64
2024/01/08 07:45:26;;;;;;;8.68;4.03;;;-3.00;99.90;;;;;;5026253;28;20280;-66
2024/01/08 07:47:52;;;;;;;9.77;3.90;;;-3.00;99.90;;;;;;5025240;28;20052;-69
2024/01/08 07:50:19;;;;;;;14.23;6.20;;;-3.10;99.90;;;;;;5025126;28;20037;-66
2024/01/08 07:52:45;;;;;;;14.52;5.85;;;-3.10;99.90;;;;;;5026995;28;20021;-65
2024/01/08 07:55:11;;;;;;;12.45;6.10;;;-3.10;99.90;;;;;;5013183;28;20041;-70
2024/01/08 07:57:37;;;;;;;15.48;6.00;;;-3.00;99.90;;;;;;5026779;28;20029;-69
2024/01/08 08:00:06;;;;;;;13.90;4.97;;;-3.00;99.90;;;;;;5026328;28;20068;-73
2024/01/08 08:02:32;;;;;;;13.23;5.43;;;-3.00;99.90;;;;;;5022231;28;20045;-67
2024/01/08 08:04:58;;;;;;;18.85;6.05;;;-3.00;99.90;;;;;;5016522;28;20653;-72
2024/01/08 08:07:24;;;;;;;15.68;5.55;;;-3.00;99.90;;;;;;5033170;28;20036;-67
2024/01/08 08:09:50;;;;;;;18.52;6.43;;;-3.00;99.90;;;;;;5022759;28;20409;-65
2024/01/08 08:12:18;;;;;;;15.52;5.40;;;-3.10;99.90;;;;;;5031708;28;20128;-66
2024/01/08 08:14:47;;;;;;;23.83;7.07;;;-3.10;99.90;;;;;;5022979;28;20034;-65
2024/01/08 08:17:13;;;;;;;13.30;5.32;;;-3.00;99.90;;;;;;5023739;28;20026;-64
2024/01/08 08:19:41;;;;;;;12.20;4.65;;;-3.10;99.90;;;;;;5022827;28;20041;-66
2024/01/08 08:22:07;;;;;;;25.50;7.20;;;-3.20;99.90;;;;;;5024644;28;20069;-68
2024/01/08 08:24:33;;;;;;;17.50;5.53;;;-3.20;99.90;;;;;;5024775;28;20853;-64
2024/01/08 08:27:00;;;;;;;18.67;7.03;;;-3.20;99.90;;;;;;5028626;28;20033;-72
2024/01/08 08:29:25;;;;;;;14.32;5.78;;;-3.20;99.90;;;;;;5029723;28;20025;-64
2024/01/08 08:31:51;;;;;;;11.77;4.82;;;-3.10;99.90;;;;;;5026257;28;20863;-66
2024/01/08 08:34:17;;;;;;;11.82;4.50;;;-3.10;99.90;;;;;;5026449;28;20040;-65
2024/01/08 08:36:42;;;;;;;11.82;4.70;;;-3.10;99.90;;;;;;5026661;28;20033;-64
2024/01/08 08:39:08;;;;;;;11.10;4.88;;;-3.10;99.90;;;;;;5021226;28;20033;-65
2024/01/08 08:41:34;;;;;;;12.25;4.78;;;-3.20;99.90;;;;;;5029234;28;20033;-64
2024/01/08 08:43:59;;;;;;;10.02;4.70;;;-3.10;99.90;;;;;;5028733;28;20021;-63
2024/01/08 08:46:25;;;;;;;13.55;5.05;;;-3.10;99.90;;;;;;5026187;28;20053;-64
2024/01/08 08:48:51;;;;;;;10.85;4.07;;;-3.10;99.90;;;;;;5027518;28;20046;-68
2024/01/08 08:51:16;;;;;;;12.25;5.15;;;-3.10;99.90;;;;;;5029531;28;20469;-68
2024/01/08 08:53:42;;;;;;;11.82;4.35;;;-3.10;99.90;;;;;;5040194;28;20028;-65
2024/01/08 08:56:10;;;;;;;15.70;4.57;;;-3.20;99.90;;;;;;5032829;28;20061;-66
2024/01/08 08:58:35;;;;;;;14.40;5.03;;;-3.10;99.90;;;;;;5027329;28;20048;-69
2024/01/08 09:01:01;;;;;;;8.98;3.40;;;-3.10;99.90;;;;;;5028545;28;20478;-67
2024/01/08 09:03:27;;;;;;;8.98;3.88;;;-3.10;99.90;;;;;;5026055;28;20076;-69
2024/01/08 09:05:52;;;;;;;11.32;3.92;;;-3.00;99.90;;;;;;5028527;28;20061;-66
2024/01/08 09:08:18;;;;;;;10.75;4.22;;;-3.00;99.90;;;;;;5029062;28;20110;-67
2024/01/08 09:10:43;;;;;;;13.68;4.40;;;-2.90;99.90;;;;;;5030170;28;20523;-66
2024/01/08 09:13:10;;;;;;;11.63;4.18;;;-2.90;99.90;;;;;;5027433;28;20028;-66
2024/01/08 09:15:36;;;;;;;10.95;4.15;;;-2.90;99.90;;;;;;5027193;28;20084;-66
2024/01/08 09:18:01;;;;;;;14.82;4.82;;;-2.90;99.90;;;;;;5032039;28;20413;-66
2024/01/08 09:20:27;;;;;;;12.45;4.70;;;-2.90;99.90;;;;;;5028514;28;20037;-66
2024/01/08 09:22:53;;;;;;;11.77;4.68;;;-2.90;99.90;;;;;;5027721;28;20033;-65
2024/01/08 09:25:19;;;;;;;11.05;4.72;;;-2.80;99.90;;;;;;5026809;28;20033;-71
2024/01/08 09:27:45;;;;;;;13.88;4.65;;;-2.70;99.90;;;;;;5029235;28;20138;-66
2024/01/08 09:30:10;;;;;;;11.85;4.40;;;-2.60;99.90;;;;;;5024224;28;20143;-70
2024/01/08 09:32:37;;;;;;;13.23;4.43;;;-2.60;99.90;;;;;;5018181;28;20033;-68
2024/01/08 09:35:03;;;;;;;10.93;4.65;;;-2.70;99.90;;;;;;5025426;28;20053;-65
2024/01/08 09:37:28;;;;;;;12.32;4.60;;;-2.70;99.90;;;;;;5027900;28;20037;-64
2024/01/08 09:39:54;;;;;;;12.05;4.80;;;-2.70;99.90;;;;;;5024741;28;20070;-66
2024/01/08 09:42:21;;;;;;;12.15;4.38;;;-2.70;99.90;;;;;;5033693;28;20381;-66
2024/01/08 09:44:53;;;;;;;12.55;4.80;;;-2.70;99.90;;;;;;5020656;28;20112;-66
2024/01/08 09:47:20;;;;;;;13.93;4.60;;;-2.70;99.90;;;;;;5014754;28;20102;-66
2024/01/08 09:49:46;;;;;;;10.38;4.35;;;-2.80;99.90;;;;;;5022633;28;20033;-67
2024/01/08 09:52:16;;;;;;;24.33;7.00;;;-2.70;99.90;;;;;;5025611;28;20036;-67
2024/01/08 09:54:42;;;;;;;13.25;4.43;;;-2.60;99.90;;;;;;5025588;28;20072;-68
2024/01/08 09:57:09;;;;;;;14.18;6.00;;;-2.70;99.90;;;;;;5029615;28;20034;-69
2024/01/08 09:59:35;;;;;;;13.05;5.18;;;-2.70;99.90;;;;;;5026967;28;20723;-63
2024/01/08 10:02:01;;;;;;;12.02;5.00;;;-2.60;99.90;;;;;;5025289;28;20033;-65
2024/01/08 10:04:27;;;;;;;11.13;4.70;;;-2.60;99.90;;;;;;5028402;28;20112;-65
2024/01/08 10:07:07;;;;;;;9.40;4.22;;;-2.60;99.90;;;;;;5024529;28;20438;-63
2024/01/08 10:09:33;;;;;;;13.43;5.43;;;-2.60;99.90;;;;;;5024328;28;20036;-65
2024/01/08 10:11:59;;;;;;;23.20;9.02;;;-2.60;99.90;;;;;;5025897;28;20668;-67
2024/01/08 10:14:27;;;;;;;16.88;7.32;;;-2.60;99.90;;;;;;5026389;28;20037;-69
2024/01/08 10:16:56;;;;;;;38.22;10.95;;;-2.60;99.90;;;;;;5027704;28;20036;-66
2024/01/08 10:19:25;;;;;;;35.00;11.38;;;-2.60;99.90;;;;;;5026761;28;20076;-67
2024/01/08 10:22:10;;;;;;;30.75;8.65;;;-2.60;99.90;;;;;;5024198;28;20053;-67
2024/01/08 10:24:38;;;;;;;21.65;6.78;;;-2.60;99.90;;;;;;5030272;28;20045;-64
2024/01/08 10:27:04;;;;;;;22.70;7.13;;;-2.70;99.90;;;;;;5033250;28;20057;-68
2024/01/08 10:29:30;;;;;;;16.55;6.43;;;-2.70;99.90;;;;;;5027506;28;20036;-65
2024/01/08 10:31:56;;;;;;;28.02;8.98;;;-2.70;99.90;;;;;;5038509;28;20033;-64
2024/01/08 10:34:23;;;;;;;19.15;7.57;;;-2.60;99.90;;;;;;5045836;28;20099;-66
2024/01/08 10:36:50;;;;;;;27.52;10.23;;;-2.60;99.90;;;;;;5036964;28;20056;-67
2024/01/08 10:39:17;;;;;;;43.22;14.68;;;-2.50;99.90;;;;;;5027985;28;20445;-65
2024/01/08 10:41:43;;;;;;;20.38;7.70;;;-2.50;99.90;;;;;;5029875;28;20044;-64
2024/01/08 10:44:08;;;;;;;26.80;9.10;;;-2.50;99.90;;;;;;5033945;28;20037;-68
2024/01/08 10:46:42;;;;;;;19.05;6.10;;;-2.50;99.90;;;;;;5038837;28;20057;-64
2024/01/08 10:49:18;;;;;;;29.23;10.45;;;-2.50;99.90;;;;;;5029026;28;20040;-69
2024/01/08 10:51:48;;;;;;;17.35;6.40;;;-2.40;99.90;;;;;;5029606;28;20099;-63
2024/01/08 10:54:18;;;;;;;13.60;5.13;;;-2.50;99.90;;;;;;5030319;28;20124;-64
2024/01/08 10:56:47;;;;;;;12.05;5.00;;;-2.50;99.90;;;;;;5029398;28;20547;-64
2024/01/08 10:59:21;;;;;;;22.33;7.78;;;-2.60;99.90;;;;;;5020418;28;20088;-71
2024/01/08 11:01:47;;;;;;;29.20;8.55;;;-2.50;99.90;;;;;;5025424;28;20683;-67
2024/01/08 11:04:13;;;;;;;18.40;7.05;;;-2.50;99.90;;;;;;5025514;28;20037;-72
2024/01/08 11:06:42;;;;;;;18.42;6.30;;;-2.50;99.90;;;;;;5056392;28;20029;-67
2024/01/08 11:09:29;;;;;;;35.40;11.35;;;-2.60;99.90;;;;;;5022307;28;20080;-66
2024/01/08 11:11:55;;;;;;;39.97;10.70;;;-2.50;99.90;;;;;;5024075;28;20120;-65
2024/01/08 11:14:23;;;;;;;21.75;8.20;;;-2.50;99.90;;;;;;5020539;28;20128;-68
2024/01/08 11:16:50;;;;;;;28.23;9.02;;;-2.60;99.90;;;;;;5020046;28;20452;-66
2024/01/08 11:19:18;;;;;;;22.20;7.40;;;-2.60;99.90;;;;;;5025535;28;20112;-64
2024/01/08 11:21:45;;;;;;;21.20;6.93;;;-2.50;99.90;;;;;;5021984;28;20051;-65
2024/01/08 11:24:11;;;;;;;21.85;8.15;;;-2.50;99.90;;;;;;5026524;28;20025;-71
2024/01/08 11:26:44;;;;;;;26.77;8.90;;;-2.50;99.90;;;;;;5025051;28;20026;-65
2024/01/08 11:29:11;;;;;;;17.83;6.90;;;-2.50;99.90;;;;;;5024296;28;20036;-70
2024/01/08 11:31:54;;;;;;;18.80;6.78;;;-2.40;99.90;;;;;;5025598;28;20025;-68
2024/01/08 11:34:45;;;;;;;12.10;5.05;;;-2.40;99.90;;;;;;5028425;28;20581;-64
2024/01/08 11:37:31;;;;;;;12.73;5.22;;;-2.40;99.90;;;;;;5008840;28;20033;-70
2024/01/08 11:40:06;;;;;;;19.17;6.03;;;-2.40;99.90;;;;;;5021144;28;20025;-64
2024/01/08 11:42:32;;;;;;;16.95;6.05;;;-2.40;99.90;;;;;;5028017;28;20715;-65
2024/01/08 11:45:04;;;;;;;56.47;14.82;;;-2.40;99.90;;;;;;5028027;28;20470;-64
2024/01/08 11:47:31;;;;;;;21.65;7.80;;;-2.40;99.90;;;;;;5027410;28;20073;-65
2024/01/08 11:49:57;;;;;;;13.68;5.93;;;-2.30;99.90;;;;;;5028642;28;20045;-64
2024/01/08 11:52:25;;;;;;;12.52;5.60;;;-2.20;99.90;;;;;;5027850;28;20068;-65
2024/01/08 11:54:52;;;;;;;11.98;4.80;;;-2.20;99.90;;;;;;5027186;28;20511;-68
2024/01/08 11:57:19;;;;;;;19.98;7.63;;;-2.20;99.90;;;;;;5027848;28;20033;-68
2024/01/08 11:59:49;;;;;;;13.43;5.65;;;-2.20;99.90;;;;;;5028418;28;20038;-65
2024/01/08 12:02:20;;;;;;;17.15;6.80;;;-2.10;99.90;;;;;;5027550;28;20029;-72
2024/01/08 12:04:52;;;;;;;21.85;8.38;;;-2.00;99.90;;;;;;5028090;28;20084;-68
2024/01/08 12:07:18;;;;;;;35.63;11.30;;;-2.10;99.90;;;;;;5027512;28;20025;-68
2024/01/08 12:09:45;;;;;;;19.80;7.20;;;-2.00;99.90;;;;;;5028639;28;20095;-68
2024/01/08 12:12:12;;;;;;;20.40;7.45;;;-2.00;99.90;;;;;;5028006;28;20022;-69
2024/01/08 12:14:39;;;;;;;16.77;6.57;;;-2.00;99.90;;;;;;5026794;28;20543;-65
2024/01/08 12:17:05;;;;;;;16.77;6.32;;;-1.90;99.90;;;;;;5030348;28;20109;-65
2024/01/08 12:19:43;;;;;;;13.27;5.57;;;-2.00;99.90;;;;;;5037511;28;20486;-68
2024/01/08 12:22:11;;;;;;;15.60;6.28;;;-2.10;99.90;;;;;;5009076;28;20048;-70
2024/01/08 12:24:37;;;;;;;14.75;6.60;;;-2.00;99.90;;;;;;5019392;28;20033;-68
2024/01/08 12:27:04;;;;;;;13.10;5.90;;;-2.00;99.90;;;;;;5028218;28;20506;-72
2024/01/08 12:29:30;;;;;;;20.35;6.97;;;-2.00;99.90;;;;;;5037417;28;20044;-64
2024/01/08 12:32:00;;;;;;;17.60;6.53;;;-2.00;99.90;;;;;;5028393;28;20030;-65
2024/01/08 12:34:30;;;;;;;17.40;6.60;;;-1.90;99.90;;;;;;5026675;28;20424;-65